VJT83UV LFBZ-EIDW
Flight info
| Callsign | VJT83UV |
|---|---|
| Flight time | 1h 25m |
| Altitude | 43000 |
| Route | VAVIX3F VAVIX DCT CNA DCT MANAK DCT MUREL DCT NOZHU DCT SHIRI DCT TOJAQ DCT UNFIT DCT PENWU DCT NICXI DCT PEMOB M17 VATRY VATRY4L |
| Aircraft | C750/M-SBDE3FGHRWXY/S |
Departure
| Time | 2026-04-17 20:48 |
|---|---|
| Airport | Biarritz Pays Basque airport (LFBZ) |
Arrival
| Time | 2026-04-17 22:13 |
|---|---|
| Airport | Dublin Airport (EIDW) |
| Time | Latitude | Longitude | Altitude | Speed | Heading |
|---|---|---|---|---|---|
| 2026-04-17 20:33 | 43.47134 | -1.53001 | 252 ft | 0 kts | 359° |
| 2026-04-17 20:41 | 43.47110 | -1.53001 | 252 ft | 7 kts | 359° |
| 2026-04-17 20:41 | 43.47061 | -1.53002 | 252 ft | 0 kts | 42° |
| 2026-04-17 20:42 | 43.47055 | -1.53010 | 252 ft | 0 kts | 91° |
| 2026-04-17 20:43 | 43.47055 | -1.52974 | 252 ft | 8 kts | 89° |
| 2026-04-17 20:43 | 43.47033 | -1.52890 | 251 ft | 10 kts | 147° |
| 2026-04-17 20:43 | 43.46993 | -1.52818 | 251 ft | 11 kts | 96° |
| 2026-04-17 20:43 | 43.46994 | -1.52684 | 250 ft | 17 kts | 89° |
| 2026-04-17 20:44 | 43.46996 | -1.52497 | 249 ft | 21 kts | 89° |
| 2026-04-17 20:44 | 43.46998 | -1.52301 | 247 ft | 18 kts | 89° |
| 2026-04-17 20:44 | 43.46960 | -1.52180 | 246 ft | 14 kts | 161° |
| 2026-04-17 20:44 | 43.46869 | -1.52161 | 246 ft | 13 kts | 148° |
| 2026-04-17 20:45 | 43.46843 | -1.52056 | 245 ft | 13 kts | 89° |
| 2026-04-17 20:45 | 43.46846 | -1.51699 | 242 ft | 49 kts | 89° |
| 2026-04-17 20:45 | 43.46846 | -1.51333 | 240 ft | 25 kts | 89° |
| 2026-04-17 20:45 | 43.46852 | -1.51094 | 238 ft | 23 kts | 88° |
| 2026-04-17 20:46 | 43.46888 | -1.50984 | 238 ft | 7 kts | 74° |
| 2026-04-17 20:46 | 43.46859 | -1.50953 | 238 ft | 5 kts | 200° |
| 2026-04-17 20:46 | 43.46853 | -1.50994 | 238 ft | 0 kts | 269° |
| 2026-04-17 20:47 | 43.46852 | -1.51043 | 238 ft | 27 kts | 269° |
| 2026-04-17 20:47 | 43.46839 | -1.52262 | 295 ft | 142 kts | 269° |
| 2026-04-17 20:47 | 43.46819 | -1.53731 | 609 ft | 168 kts | 268° |
| 2026-04-17 20:48 | 43.46798 | -1.55468 | 983 ft | 194 kts | 269° |
| 2026-04-17 20:48 | 43.47016 | -1.57357 | 1490 ft | 209 kts | 295° |
| 2026-04-17 20:48 | 43.47976 | -1.58817 | 2373 ft | 206 kts | 326° |
| 2026-04-17 20:48 | 43.49366 | -1.59374 | 3024 ft | 215 kts | 358° |
| 2026-04-17 20:49 | 43.50891 | -1.59362 | 3736 ft | 222 kts | 3° |
| 2026-04-17 20:49 | 43.52437 | -1.59348 | 4557 ft | 223 kts | 2° |
| 2026-04-17 20:49 | 43.53999 | -1.59354 | 5327 ft | 225 kts | 0° |
| 2026-04-17 20:49 | 43.55567 | -1.59357 | 6064 ft | 226 kts | 359° |
| 2026-04-17 20:50 | 43.57144 | -1.59352 | 6765 ft | 227 kts | 359° |
| 2026-04-17 20:50 | 43.58686 | -1.58769 | 7266 ft | 240 kts | 29° |
| 2026-04-17 20:50 | 43.59894 | -1.57230 | 7991 ft | 240 kts | 45° |
| 2026-04-17 20:50 | 43.61024 | -1.55511 | 8727 ft | 244 kts | 46° |
| 2026-04-17 20:51 | 43.62186 | -1.53768 | 9445 ft | 249 kts | 46° |
| 2026-04-17 20:51 | 43.63381 | -1.52004 | 10097 ft | 254 kts | 46° |
| 2026-04-17 20:51 | 43.64589 | -1.50215 | 10714 ft | 256 kts | 46° |
| 2026-04-17 20:51 | 43.65829 | -1.48368 | 11134 ft | 273 kts | 46° |
| 2026-04-17 20:52 | 43.67187 | -1.46349 | 11412 ft | 300 kts | 46° |
| 2026-04-17 20:52 | 43.68670 | -1.44143 | 11646 ft | 327 kts | 46° |
| 2026-04-17 20:52 | 43.70278 | -1.41746 | 11798 ft | 353 kts | 46° |
| 2026-04-17 20:52 | 43.71975 | -1.39214 | 12106 ft | 369 kts | 46° |
| 2026-04-17 20:53 | 43.73725 | -1.36600 | 12926 ft | 370 kts | 46° |
| 2026-04-17 20:53 | 43.75487 | -1.33966 | 13619 ft | 375 kts | 46° |
| 2026-04-17 20:53 | 43.77270 | -1.31301 | 14285 ft | 379 kts | 46° |
| 2026-04-17 20:53 | 43.79070 | -1.28607 | 14905 ft | 383 kts | 46° |
| 2026-04-17 20:54 | 43.81003 | -1.26057 | 15434 ft | 386 kts | 39° |
| 2026-04-17 20:54 | 43.81695 | -1.25240 | 15650 ft | 387 kts | 39° |
| 2026-04-17 20:54 | 43.85120 | -1.21167 | 16733 ft | 393 kts | 39° |
| 2026-04-17 20:54 | 43.87194 | -1.18652 | 17387 ft | 398 kts | 39° |
| 2026-04-17 20:55 | 43.89290 | -1.16124 | 18055 ft | 402 kts | 39° |
| 2026-04-17 20:55 | 43.91417 | -1.13575 | 18714 ft | 406 kts | 39° |
| 2026-04-17 20:55 | 43.93529 | -1.11035 | 19349 ft | 408 kts | 39° |
| 2026-04-17 20:55 | 43.95687 | -1.08427 | 19979 ft | 412 kts | 39° |
| 2026-04-17 20:56 | 43.97863 | -1.05798 | 20640 ft | 416 kts | 39° |
| 2026-04-17 20:56 | 44.00056 | -1.03149 | 21290 ft | 419 kts | 39° |
| 2026-04-17 20:56 | 44.02271 | -1.00471 | 21932 ft | 423 kts | 39° |
| 2026-04-17 20:56 | 44.04511 | -0.97758 | 22510 ft | 429 kts | 39° |
| 2026-04-17 20:57 | 44.06007 | -0.95944 | 22925 ft | 432 kts | 39° |
| 2026-04-17 20:57 | 44.09021 | -0.92287 | 23752 ft | 436 kts | 39° |
| 2026-04-17 20:57 | 44.11319 | -0.89495 | 24256 ft | 440 kts | 39° |
| 2026-04-17 20:57 | 44.13642 | -0.86670 | 24748 ft | 444 kts | 39° |
| 2026-04-17 20:58 | 44.15980 | -0.83824 | 25249 ft | 448 kts | 39° |
| 2026-04-17 20:58 | 44.18337 | -0.80952 | 25737 ft | 452 kts | 39° |
| 2026-04-17 20:58 | 44.20718 | -0.78046 | 26225 ft | 456 kts | 39° |
| 2026-04-17 20:58 | 44.23117 | -0.75115 | 26726 ft | 460 kts | 39° |
| 2026-04-17 20:59 | 44.25609 | -0.72312 | 27180 ft | 461 kts | 32° |
| 2026-04-17 20:59 | 44.28356 | -0.70129 | 27684 ft | 460 kts | 22° |
| 2026-04-17 20:59 | 44.31353 | -0.68552 | 28183 ft | 459 kts | 13° |
| 2026-04-17 20:59 | 44.34473 | -0.67597 | 28674 ft | 460 kts | 7° |
| 2026-04-17 21:00 | 44.37635 | -0.66755 | 29165 ft | 464 kts | 7° |
| 2026-04-17 21:00 | 44.40817 | -0.65882 | 29643 ft | 468 kts | 7° |
| 2026-04-17 21:00 | 44.44024 | -0.65002 | 30137 ft | 471 kts | 7° |
| 2026-04-17 21:00 | 44.47254 | -0.64129 | 30553 ft | 475 kts | 7° |
| 2026-04-17 21:01 | 44.50508 | -0.63252 | 30959 ft | 478 kts | 7° |
| 2026-04-17 21:01 | 44.53780 | -0.62357 | 31460 ft | 478 kts | 7° |
| 2026-04-17 21:01 | 44.56999 | -0.61473 | 32074 ft | 476 kts | 7° |
| 2026-04-17 21:01 | 44.60255 | -0.60585 | 32640 ft | 476 kts | 7° |
| 2026-04-17 21:02 | 44.63501 | -0.59702 | 33204 ft | 476 kts | 7° |
| 2026-04-17 21:02 | 44.66752 | -0.58813 | 33771 ft | 475 kts | 7° |
| 2026-04-17 21:02 | 44.69994 | -0.57921 | 34350 ft | 475 kts | 7° |
| 2026-04-17 21:02 | 44.73237 | -0.57031 | 34881 ft | 474 kts | 7° |
| 2026-04-17 21:03 | 44.76471 | -0.56145 | 35407 ft | 473 kts | 7° |
| 2026-04-17 21:03 | 44.79700 | -0.55258 | 35932 ft | 472 kts | 7° |
| 2026-04-17 21:03 | 44.82923 | -0.54370 | 36454 ft | 472 kts | 7° |
| 2026-04-17 21:03 | 44.86141 | -0.53483 | 36973 ft | 471 kts | 7° |
| 2026-04-17 21:04 | 44.89358 | -0.52596 | 37506 ft | 470 kts | 7° |
| 2026-04-17 21:04 | 44.92568 | -0.51710 | 38034 ft | 469 kts | 7° |
| 2026-04-17 21:04 | 44.95772 | -0.50824 | 38550 ft | 469 kts | 7° |
| 2026-04-17 21:04 | 44.98973 | -0.49938 | 39016 ft | 468 kts | 7° |
| 2026-04-17 21:05 | 45.02133 | -0.49063 | 39410 ft | 468 kts | 7° |
| 2026-04-17 21:05 | 45.05339 | -0.48174 | 39806 ft | 468 kts | 7° |
| 2026-04-17 21:05 | 45.08538 | -0.47285 | 40212 ft | 468 kts | 7° |
| 2026-04-17 21:05 | 45.09615 | -0.46985 | 40349 ft | 468 kts | 7° |
| 2026-04-17 21:06 | 45.14930 | -0.45507 | 41029 ft | 468 kts | 7° |
| 2026-04-17 21:06 | 45.18127 | -0.44616 | 41449 ft | 468 kts | 7° |
| 2026-04-17 21:06 | 45.21328 | -0.43723 | 41876 ft | 468 kts | 7° |
| 2026-04-17 21:06 | 45.24525 | -0.42830 | 42286 ft | 468 kts | 7° |
| 2026-04-17 21:07 | 45.27722 | -0.41936 | 42702 ft | 468 kts | 7° |
| 2026-04-17 21:07 | 45.30873 | -0.41054 | 43107 ft | 467 kts | 7° |
| 2026-04-17 21:07 | 45.37399 | -0.39229 | 43175 ft | 483 kts | 7° |
| 2026-04-17 21:08 | 45.44081 | -0.37347 | 43184 ft | 500 kts | 7° |
| 2026-04-17 21:08 | 45.51018 | -0.35394 | 43187 ft | 515 kts | 7° |
| 2026-04-17 21:09 | 45.58107 | -0.33569 | 43183 ft | 516 kts | 2° |
| 2026-04-17 21:09 | 45.65133 | -0.34086 | 43176 ft | 505 kts | 344° |
| 2026-04-17 21:10 | 45.71647 | -0.37536 | 43161 ft | 495 kts | 327° |
| 2026-04-17 21:10 | 45.77110 | -0.43372 | 43181 ft | 489 kts | 315° |
| 2026-04-17 21:11 | 45.82267 | -0.49764 | 43175 ft | 491 kts | 318° |
| 2026-04-17 21:11 | 45.87705 | -0.55587 | 43174 ft | 491 kts | 318° |
| 2026-04-17 21:12 | 45.92984 | -0.61794 | 43175 ft | 490 kts | 317° |
| 2026-04-17 21:12 | 45.98378 | -0.67819 | 43171 ft | 491 kts | 318° |
| 2026-04-17 21:13 | 46.03691 | -0.73951 | 43170 ft | 489 kts | 317° |
| 2026-04-17 21:13 | 46.09031 | -0.80037 | 43176 ft | 490 kts | 318° |
| 2026-04-17 21:14 | 46.14330 | -0.86130 | 43179 ft | 489 kts | 317° |
| 2026-04-17 21:14 | 46.17888 | -0.90231 | 43175 ft | 490 kts | 317° |
| 2026-04-17 21:15 | 46.25471 | -0.97457 | 43177 ft | 494 kts | 328° |
| 2026-04-17 21:15 | 46.31537 | -1.02190 | 43189 ft | 495 kts | 327° |
| 2026-04-17 21:16 | 46.37580 | -1.06979 | 43189 ft | 495 kts | 327° |
| 2026-04-17 21:16 | 46.43637 | -1.11744 | 43184 ft | 494 kts | 327° |
| 2026-04-17 21:17 | 46.49641 | -1.16514 | 43196 ft | 494 kts | 327° |
| 2026-04-17 21:17 | 46.55679 | -1.21299 | 43216 ft | 494 kts | 327° |
| 2026-04-17 21:18 | 46.61727 | -1.26120 | 43221 ft | 495 kts | 327° |
| 2026-04-17 21:18 | 46.67724 | -1.30902 | 43211 ft | 495 kts | 327° |
| 2026-04-17 21:19 | 46.73759 | -1.35733 | 43214 ft | 495 kts | 327° |
| 2026-04-17 21:19 | 46.79799 | -1.40577 | 43219 ft | 495 kts | 327° |
| 2026-04-17 21:20 | 46.85830 | -1.45430 | 43214 ft | 495 kts | 327° |
| 2026-04-17 21:20 | 46.91865 | -1.50295 | 43206 ft | 495 kts | 327° |
| 2026-04-17 21:21 | 46.97908 | -1.55182 | 43190 ft | 496 kts | 327° |
| 2026-04-17 21:21 | 47.03895 | -1.60034 | 43187 ft | 495 kts | 327° |
| 2026-04-17 21:22 | 47.09920 | -1.64931 | 43196 ft | 495 kts | 327° |
| 2026-04-17 21:22 | 47.15962 | -1.69855 | 43193 ft | 496 kts | 327° |
| 2026-04-17 21:23 | 47.20981 | -1.73953 | 43183 ft | 496 kts | 327° |
| 2026-04-17 21:23 | 47.27015 | -1.78894 | 43183 ft | 496 kts | 327° |
| 2026-04-17 21:24 | 47.33055 | -1.83852 | 43183 ft | 496 kts | 327° |
| 2026-04-17 21:24 | 47.39092 | -1.88821 | 43200 ft | 498 kts | 327° |
| 2026-04-17 21:25 | 47.45102 | -1.93780 | 43203 ft | 497 kts | 327° |
| 2026-04-17 21:25 | 47.51133 | -1.98771 | 43201 ft | 497 kts | 327° |
| 2026-04-17 21:26 | 47.57173 | -2.03782 | 43201 ft | 497 kts | 327° |
| 2026-04-17 21:26 | 47.63206 | -2.08801 | 43196 ft | 497 kts | 327° |
| 2026-04-17 21:27 | 47.69255 | -2.13847 | 43196 ft | 499 kts | 327° |
| 2026-04-17 21:27 | 47.75300 | -2.18902 | 43205 ft | 498 kts | 327° |
| 2026-04-17 21:28 | 47.81312 | -2.23944 | 43201 ft | 500 kts | 327° |
| 2026-04-17 21:28 | 47.87372 | -2.29039 | 43201 ft | 499 kts | 327° |
| 2026-04-17 21:29 | 47.93431 | -2.34148 | 43201 ft | 499 kts | 327° |
| 2026-04-17 21:29 | 47.99457 | -2.39242 | 43224 ft | 500 kts | 327° |
| 2026-04-17 21:30 | 48.05521 | -2.44383 | 43212 ft | 501 kts | 327° |
| 2026-04-17 21:30 | 48.11582 | -2.49535 | 43213 ft | 501 kts | 326° |
| 2026-04-17 21:31 | 48.17643 | -2.54701 | 43212 ft | 501 kts | 326° |
| 2026-04-17 21:31 | 48.23706 | -2.59885 | 43218 ft | 503 kts | 326° |
| 2026-04-17 21:32 | 48.29780 | -2.65089 | 43223 ft | 502 kts | 326° |
| 2026-04-17 21:32 | 48.35817 | -2.70279 | 43221 ft | 502 kts | 326° |
| 2026-04-17 21:33 | 48.41894 | -2.75514 | 43226 ft | 503 kts | 326° |
| 2026-04-17 21:33 | 48.47938 | -2.80739 | 43224 ft | 503 kts | 326° |
| 2026-04-17 21:34 | 48.54018 | -2.86008 | 43216 ft | 503 kts | 326° |
| 2026-04-17 21:35 | 48.63126 | -2.93928 | 43211 ft | 504 kts | 326° |
| 2026-04-17 21:35 | 48.69161 | -2.99196 | 43215 ft | 503 kts | 326° |
| 2026-04-17 21:36 | 48.75233 | -3.04510 | 43216 ft | 503 kts | 326° |
| 2026-04-17 21:36 | 48.81309 | -3.09843 | 43225 ft | 505 kts | 326° |
| 2026-04-17 21:37 | 48.87381 | -3.15186 | 43226 ft | 504 kts | 326° |
| 2026-04-17 21:37 | 48.93459 | -3.20552 | 43232 ft | 504 kts | 326° |
| 2026-04-17 21:38 | 48.99484 | -3.25884 | 43229 ft | 504 kts | 326° |
| 2026-04-17 21:38 | 49.05566 | -3.31282 | 43226 ft | 505 kts | 326° |
| 2026-04-17 21:39 | 49.11640 | -3.36689 | 43236 ft | 505 kts | 326° |
| 2026-04-17 21:39 | 49.17704 | -3.42104 | 43233 ft | 505 kts | 326° |
| 2026-04-17 21:40 | 49.23762 | -3.47527 | 43237 ft | 505 kts | 326° |
| 2026-04-17 21:40 | 49.29838 | -3.52983 | 43233 ft | 506 kts | 325° |
| 2026-04-17 21:41 | 49.36278 | -3.57474 | 43235 ft | 513 kts | 336° |
| 2026-04-17 21:41 | 49.42960 | -3.61176 | 43235 ft | 513 kts | 335° |
| 2026-04-17 21:42 | 49.49659 | -3.65083 | 43229 ft | 514 kts | 335° |
| 2026-04-17 21:42 | 49.56372 | -3.68886 | 43227 ft | 514 kts | 335° |
| 2026-04-17 21:43 | 49.63070 | -3.72770 | 43235 ft | 514 kts | 335° |
| 2026-04-17 21:43 | 49.69926 | -3.75759 | 43229 ft | 522 kts | 348° |
| 2026-04-17 21:44 | 49.77252 | -3.75788 | 43222 ft | 531 kts | 2° |
| 2026-04-17 21:44 | 49.84622 | -3.74521 | 43226 ft | 531 kts | 1° |
| 2026-04-17 21:45 | 49.91989 | -3.73898 | 43237 ft | 531 kts | 0° |
| 2026-04-17 21:45 | 49.99377 | -3.72867 | 43226 ft | 532 kts | 1° |
| 2026-04-17 21:46 | 50.06712 | -3.72080 | 43219 ft | 531 kts | 0° |
| 2026-04-17 21:46 | 50.14090 | -3.71156 | 43243 ft | 532 kts | 1° |
| 2026-04-17 21:47 | 50.20244 | -3.70424 | 43221 ft | 533 kts | 0° |
| 2026-04-17 21:47 | 50.28899 | -3.69392 | 43224 ft | 533 kts | 1° |
| 2026-04-17 21:48 | 50.36257 | -3.68500 | 43211 ft | 532 kts | 1° |
| 2026-04-17 21:48 | 50.43638 | -3.67521 | 43198 ft | 532 kts | 1° |
| 2026-04-17 21:49 | 50.50942 | -3.68280 | 43199 ft | 523 kts | 344° |
| 2026-04-17 21:49 | 50.57708 | -3.72148 | 43219 ft | 514 kts | 329° |
| 2026-04-17 21:50 | 50.64059 | -3.77375 | 43216 ft | 515 kts | 328° |
| 2026-04-17 21:50 | 50.70681 | -3.81824 | 43216 ft | 519 kts | 335° |
| 2026-04-17 21:51 | 50.77267 | -3.86235 | 43214 ft | 516 kts | 330° |
| 2026-04-17 21:51 | 50.83841 | -3.90880 | 43202 ft | 520 kts | 333° |
| 2026-04-17 21:52 | 50.90484 | -3.95349 | 43205 ft | 518 kts | 332° |
| 2026-04-17 21:52 | 50.97067 | -3.99996 | 43205 ft | 518 kts | 333° |
| 2026-04-17 21:53 | 51.03691 | -4.04526 | 43199 ft | 518 kts | 332° |
| 2026-04-17 21:53 | 51.10289 | -4.09167 | 43193 ft | 518 kts | 332° |
| 2026-04-17 21:54 | 51.16862 | -4.13727 | 43194 ft | 518 kts | 332° |
| 2026-04-17 21:54 | 51.23466 | -4.18374 | 43195 ft | 518 kts | 332° |
| 2026-04-17 21:55 | 51.30079 | -4.23011 | 43184 ft | 519 kts | 332° |
| 2026-04-17 21:55 | 51.36656 | -4.27654 | 43185 ft | 519 kts | 332° |
| 2026-04-17 21:56 | 51.43256 | -4.32370 | 43185 ft | 518 kts | 330° |
| 2026-04-17 21:56 | 51.49761 | -4.37331 | 43191 ft | 516 kts | 330° |
| 2026-04-17 21:56 | 51.52983 | -4.39767 | 42536 ft | 508 kts | 330° |
| 2026-04-17 21:57 | 51.56133 | -4.42173 | 41869 ft | 496 kts | 330° |
| 2026-04-17 21:57 | 51.59215 | -4.44543 | 41226 ft | 484 kts | 329° |
| 2026-04-17 21:57 | 51.62219 | -4.46847 | 40597 ft | 474 kts | 329° |
| 2026-04-17 21:57 | 51.65165 | -4.49102 | 39982 ft | 464 kts | 329° |
| 2026-04-17 21:58 | 51.68061 | -4.51327 | 39380 ft | 458 kts | 329° |
| 2026-04-17 21:58 | 51.70893 | -4.53513 | 38779 ft | 457 kts | 328° |
| 2026-04-17 21:58 | 51.73760 | -4.55729 | 38127 ft | 456 kts | 328° |
| 2026-04-17 21:58 | 51.76496 | -4.58297 | 37514 ft | 454 kts | 319° |
| 2026-04-17 21:59 | 51.78910 | -4.61541 | 36921 ft | 451 kts | 309° |
| 2026-04-17 21:59 | 51.80972 | -4.65334 | 36337 ft | 446 kts | 302° |
| 2026-04-17 21:59 | 51.82923 | -4.69233 | 35739 ft | 446 kts | 302° |
| 2026-04-17 21:59 | 51.84895 | -4.73105 | 35147 ft | 445 kts | 302° |
| 2026-04-17 22:00 | 51.86875 | -4.76954 | 34560 ft | 444 kts | 302° |
| 2026-04-17 22:00 | 51.88839 | -4.80812 | 33949 ft | 441 kts | 301° |
| 2026-04-17 22:00 | 51.90752 | -4.84609 | 33353 ft | 441 kts | 301° |
| 2026-04-17 22:00 | 51.92696 | -4.88465 | 32782 ft | 443 kts | 301° |
| 2026-04-17 22:01 | 51.94659 | -4.92339 | 32207 ft | 445 kts | 301° |
| 2026-04-17 22:01 | 51.96626 | -4.96222 | 31589 ft | 446 kts | 301° |
| 2026-04-17 22:01 | 51.98588 | -5.00115 | 31001 ft | 445 kts | 301° |
| 2026-04-17 22:01 | 52.00655 | -5.03919 | 30379 ft | 455 kts | 308° |
| 2026-04-17 22:02 | 52.03221 | -5.07010 | 29743 ft | 464 kts | 321° |
| 2026-04-17 22:02 | 52.06083 | -5.09412 | 29154 ft | 463 kts | 325° |
| 2026-04-17 22:02 | 52.08965 | -5.11718 | 28538 ft | 460 kts | 326° |
| 2026-04-17 22:02 | 52.11825 | -5.14031 | 27931 ft | 455 kts | 325° |
| 2026-04-17 22:03 | 52.14608 | -5.16319 | 27337 ft | 451 kts | 325° |
| 2026-04-17 22:03 | 52.17399 | -5.18612 | 26781 ft | 447 kts | 325° |
| 2026-04-17 22:03 | 52.20176 | -5.20876 | 26147 ft | 444 kts | 325° |
| 2026-04-17 22:03 | 52.22930 | -5.23120 | 25561 ft | 440 kts | 325° |
| 2026-04-17 22:04 | 52.25658 | -5.25361 | 24984 ft | 437 kts | 325° |
| 2026-04-17 22:04 | 52.28358 | -5.27584 | 24406 ft | 434 kts | 325° |
| 2026-04-17 22:04 | 52.31045 | -5.29793 | 23838 ft | 431 kts | 325° |
| 2026-04-17 22:04 | 52.33715 | -5.31988 | 23223 ft | 426 kts | 325° |
| 2026-04-17 22:05 | 52.36344 | -5.34155 | 22659 ft | 422 kts | 325° |
| 2026-04-17 22:05 | 52.38961 | -5.36318 | 22095 ft | 418 kts | 325° |
| 2026-04-17 22:05 | 52.41517 | -5.38433 | 21560 ft | 415 kts | 325° |
| 2026-04-17 22:05 | 52.44077 | -5.40550 | 21009 ft | 410 kts | 325° |
| 2026-04-17 22:06 | 52.46615 | -5.42652 | 20470 ft | 406 kts | 325° |
| 2026-04-17 22:06 | 52.49132 | -5.44743 | 19936 ft | 402 kts | 325° |
| 2026-04-17 22:06 | 52.51620 | -5.46812 | 19415 ft | 399 kts | 325° |
| 2026-04-17 22:06 | 52.54086 | -5.48863 | 18894 ft | 395 kts | 326° |
| 2026-04-17 22:07 | 52.56620 | -5.50649 | 18342 ft | 399 kts | 334° |
| 2026-04-17 22:07 | 52.59274 | -5.51983 | 17808 ft | 397 kts | 336° |
| 2026-04-17 22:07 | 52.61910 | -5.53279 | 17293 ft | 393 kts | 336° |
| 2026-04-17 22:07 | 52.64509 | -5.54625 | 16794 ft | 390 kts | 335° |
| 2026-04-17 22:08 | 52.67053 | -5.55966 | 16270 ft | 386 kts | 335° |
| 2026-04-17 22:08 | 52.69612 | -5.57282 | 15769 ft | 384 kts | 336° |
| 2026-04-17 22:08 | 52.72153 | -5.58576 | 15263 ft | 381 kts | 336° |
| 2026-04-17 22:08 | 52.74672 | -5.59881 | 14760 ft | 378 kts | 335° |
| 2026-04-17 22:09 | 52.77167 | -5.61193 | 14257 ft | 375 kts | 335° |
| 2026-04-17 22:09 | 52.88201 | -5.66964 | 12065 ft | 361 kts | 336° |
| 2026-04-17 22:09 | 53.07329 | -5.77002 | 8317 ft | 252 kts | 336° |
| 2026-04-17 22:09 | 53.26699 | -5.65697 | 6195 ft | 214 kts | 82° |
| 2026-04-17 22:10 | 53.36275 | -5.39946 | 6234 ft | 170 kts | 351° |
| 2026-04-17 22:10 | 53.41221 | -5.56250 | 12432 ft | 98 kts | 230° |
| 2026-04-17 22:10 | 53.35449 | -5.87115 | 19472 ft | 233 kts | 259° |
| 2026-04-17 22:10 | 53.52321 | -6.16644 | 7342 ft | 494 kts | 65° |
| 2026-04-17 22:11 | 53.45211 | -6.01472 | 6386 ft | 143 kts | 193° |
| 2026-04-17 22:11 | 53.41428 | -6.09530 | 3011 ft | 117 kts | 261° |
| 2026-04-17 22:11 | 53.41563 | -6.16020 | 1416 ft | 99 kts | 270° |
| 2026-04-17 22:11 | 53.41611 | -6.17560 | 1258 ft | 100 kts | 266° |
| 2026-04-17 22:12 | 53.41695 | -6.20021 | 980 ft | 117 kts | 272° |
| 2026-04-17 22:12 | 53.41890 | -6.22540 | 624 ft | 125 kts | 272° |
| 2026-04-17 22:12 | 53.41968 | -6.24131 | 399 ft | 123 kts | 274° |
| 2026-04-17 22:12 | 53.42051 | -6.25569 | 237 ft | 121 kts | 275° |
| 2026-04-17 22:13 | 53.42108 | -6.26832 | 230 ft | 107 kts | 276° |
| 2026-04-17 22:13 | 53.42174 | -6.28043 | 232 ft | 81 kts | 275° |
| 2026-04-17 22:13 | 53.42209 | -6.28458 | 235 ft | 0 kts | 266° |